sensor_id;sensor_type;location;lat;lon;timestamp;pressure;altitude;pressure_sealevel;temperature;humidity
30819;BME280;17546;42.674;23.284;2023-03-25T00:00:56;94450.81;;;18.76;35.92
30819;BME280;17546;42.674;23.284;2023-03-25T00:03:23;94459.56;;;18.57;36.30
30819;BME280;17546;42.674;23.284;2023-03-25T00:05:53;94443.97;;;18.33;36.25
30819;BME280;17546;42.674;23.284;2023-03-25T00:08:20;94456.22;;;18.59;35.97
30819;BME280;17546;42.674;23.284;2023-03-25T00:10:55;94470.81;;;18.65;36.18
30819;BME280;17546;42.674;23.284;2023-03-25T00:13:21;94469.50;;;18.66;36.07
30819;BME280;17546;42.674;23.284;2023-03-25T00:15:48;94450.38;;;18.49;36.31
30819;BME280;17546;42.674;23.284;2023-03-25T00:18:18;94456.00;;;18.57;36.08
30819;BME280;17546;42.674;23.284;2023-03-25T00:20:48;94435.59;;;18.49;36.01
30819;BME280;17546;42.674;23.284;2023-03-25T00:23:17;94439.53;;;18.53;36.41
30819;BME280;17546;42.674;23.284;2023-03-25T00:25:43;94421.19;;;18.37;36.13
30819;BME280;17546;42.674;23.284;2023-03-25T00:28:10;94382.97;;;18.11;36.39
30819;BME280;17546;42.674;23.284;2023-03-25T00:30:37;94412.50;;;18.12;36.99
30819;BME280;17546;42.674;23.284;2023-03-25T00:33:02;94423.56;;;18.17;37.03
30819;BME280;17546;42.674;23.284;2023-03-25T00:35:28;94411.19;;;18.13;36.87
30819;BME280;17546;42.674;23.284;2023-03-25T00:37:54;94428.03;;;18.21;36.98
30819;BME280;17546;42.674;23.284;2023-03-25T00:40:29;94447.31;;;18.24;37.19
30819;BME280;17546;42.674;23.284;2023-03-25T00:42:59;94427.03;;;18.03;37.16
30819;BME280;17546;42.674;23.284;2023-03-25T00:45:26;94435.69;;;18.12;37.08
30819;BME280;17546;42.674;23.284;2023-03-25T00:47:52;94410.63;;;18.07;37.20
30819;BME280;17546;42.674;23.284;2023-03-25T00:50:17;94434.03;;;18.17;37.02
30819;BME280;17546;42.674;23.284;2023-03-25T00:52:43;94413.94;;;17.98;37.19
30819;BME280;17546;42.674;23.284;2023-03-25T00:55:09;94422.56;;;18.00;37.23
30819;BME280;17546;42.674;23.284;2023-03-25T00:57:34;94423.28;;;18.00;37.33
30819;BME280;17546;42.674;23.284;2023-03-25T01:00:01;94419.19;;;18.01;37.30
30819;BME280;17546;42.674;23.284;2023-03-25T01:02:26;94417.66;;;17.92;37.43
30819;BME280;17546;42.674;23.284;2023-03-25T01:04:52;94422.16;;;17.95;37.47
30819;BME280;17546;42.674;23.284;2023-03-25T01:07:18;94413.75;;;17.95;37.39
30819;BME280;17546;42.674;23.284;2023-03-25T01:09:45;94409.44;;;17.94;37.51
30819;BME280;17546;42.674;23.284;2023-03-25T01:12:11;94403.06;;;17.86;37.49
30819;BME280;17546;42.674;23.284;2023-03-25T01:14:37;94398.06;;;18.00;37.26
30819;BME280;17546;42.674;23.284;2023-03-25T01:17:05;94399.06;;;18.10;37.32
30819;BME280;17546;42.674;23.284;2023-03-25T01:19:30;94400.00;;;18.13;37.12
30819;BME280;17546;42.674;23.284;2023-03-25T01:21:56;94401.63;;;18.01;37.33
30819;BME280;17546;42.674;23.284;2023-03-25T01:24:21;94399.06;;;18.10;37.25
30819;BME280;17546;42.674;23.284;2023-03-25T01:26:47;94393.19;;;17.93;37.47
30819;BME280;17546;42.674;23.284;2023-03-25T01:29:15;94382.00;;;17.93;37.39
30819;BME280;17546;42.674;23.284;2023-03-25T01:31:43;94368.72;;;17.93;37.11
30819;BME280;17546;42.674;23.284;2023-03-25T01:34:09;94375.31;;;18.04;36.95
30819;BME280;17546;42.674;23.284;2023-03-25T01:36:35;94382.94;;;18.03;36.98
30819;BME280;17546;42.674;23.284;2023-03-25T01:39:02;94385.72;;;17.95;37.29
30819;BME280;17546;42.674;23.284;2023-03-25T01:41:30;94376.53;;;17.87;37.26
30819;BME280;17546;42.674;23.284;2023-03-25T01:44:07;94374.53;;;17.95;37.48
30819;BME280;17546;42.674;23.284;2023-03-25T01:46:36;94370.09;;;17.71;37.96
30819;BME280;17546;42.674;23.284;2023-03-25T01:49:04;94371.44;;;17.78;37.70
30819;BME280;17546;42.674;23.284;2023-03-25T01:51:35;94348.34;;;17.49;37.88
30819;BME280;17546;42.674;23.284;2023-03-25T01:54:01;94361.41;;;17.46;38.11
30819;BME280;17546;42.674;23.284;2023-03-25T01:56:32;94339.69;;;17.39;38.23
30819;BME280;17546;42.674;23.284;2023-03-25T01:59:02;94367.75;;;17.54;38.17
30819;BME280;17546;42.674;23.284;2023-03-25T02:01:29;94358.78;;;17.48;38.02
30819;BME280;17546;42.674;23.284;2023-03-25T02:03:59;94346.19;;;17.34;38.23
30819;BME280;17546;42.674;23.284;2023-03-25T02:06:49;94372.03;;;17.48;38.69
30819;BME280;17546;42.674;23.284;2023-03-25T02:09:20;94368.06;;;17.35;38.52
30819;BME280;17546;42.674;23.284;2023-03-25T02:11:45;94343.31;;;17.19;38.70
30819;BME280;17546;42.674;23.284;2023-03-25T02:14:14;94351.59;;;17.32;38.36
30819;BME280;17546;42.674;23.284;2023-03-25T02:28:06;94347.69;;;17.35;38.69
30819;BME280;17546;42.674;23.284;2023-03-25T02:39:37;94353.91;;;17.12;39.32
30819;BME280;17546;42.674;23.284;2023-03-25T02:44:58;94354.63;;;16.84;39.90
30819;BME280;17546;42.674;23.284;2023-03-25T02:47:28;94356.38;;;16.95;39.63
30819;BME280;17546;42.674;23.284;2023-03-25T02:50:06;94350.72;;;16.66;40.48
30819;BME280;17546;42.674;23.284;2023-03-25T02:52:34;94349.75;;;17.06;39.49
30819;BME280;17546;42.674;23.284;2023-03-25T02:55:06;94346.66;;;16.67;40.17
30819;BME280;17546;42.674;23.284;2023-03-25T02:57:39;94320.88;;;16.61;40.07
30819;BME280;17546;42.674;23.284;2023-03-25T03:00:08;94333.78;;;16.43;40.65
30819;BME280;17546;42.674;23.284;2023-03-25T03:02:45;94337.19;;;16.49;40.40
30819;BME280;17546;42.674;23.284;2023-03-25T03:05:29;94329.47;;;16.63;40.26
30819;BME280;17546;42.674;23.284;2023-03-25T03:10:51;94330.91;;;16.57;40.33
30819;BME280;17546;42.674;23.284;2023-03-25T03:19:07;94341.47;;;16.71;40.19
30819;BME280;17546;42.674;23.284;2023-03-25T03:24:24;94323.63;;;16.53;40.39
30819;BME280;17546;42.674;23.284;2023-03-25T03:27:16;94323.94;;;16.50;40.27
30819;BME280;17546;42.674;23.284;2023-03-25T03:29:51;94344.94;;;16.64;40.36
30819;BME280;17546;42.674;23.284;2023-03-25T03:32:31;94343.38;;;16.77;39.93
30819;BME280;17546;42.674;23.284;2023-03-25T03:35:08;94332.88;;;16.69;39.96
30819;BME280;17546;42.674;23.284;2023-03-25T03:37:37;94348.28;;;16.84;39.87
30819;BME280;17546;42.674;23.284;2023-03-25T03:40:09;94346.25;;;16.63;40.26
30819;BME280;17546;42.674;23.284;2023-03-25T03:42:40;94351.28;;;16.65;40.33
30819;BME280;17546;42.674;23.284;2023-03-25T03:45:13;94320.75;;;16.46;40.20
30819;BME280;17546;42.674;23.284;2023-03-25T03:47:46;94325.31;;;16.57;40.12
30819;BME280;17546;42.674;23.284;2023-03-25T03:50:18;94337.94;;;16.50;40.36
30819;BME280;17546;42.674;23.284;2023-03-25T03:52:51;94354.38;;;16.53;40.52
30819;BME280;17546;42.674;23.284;2023-03-25T03:55:25;94325.50;;;16.38;40.42
30819;BME280;17546;42.674;23.284;2023-03-25T03:58:00;94330.22;;;16.43;40.17
30819;BME280;17546;42.674;23.284;2023-03-25T04:00:32;94326.19;;;16.30;40.51
30819;BME280;17546;42.674;23.284;2023-03-25T04:03:02;94349.44;;;16.46;40.25
30819;BME280;17546;42.674;23.284;2023-03-25T04:05:29;94355.13;;;16.54;40.38
30819;BME280;17546;42.674;23.284;2023-03-25T04:08:31;94342.13;;;16.64;40.18
30819;BME280;17546;42.674;23.284;2023-03-25T04:11:04;94343.56;;;16.58;40.25
30819;BME280;17546;42.674;23.284;2023-03-25T04:13:40;94349.56;;;16.62;40.12
30819;BME280;17546;42.674;23.284;2023-03-25T04:16:07;94343.94;;;16.54;40.21
30819;BME280;17546;42.674;23.284;2023-03-25T04:18:33;94344.28;;;16.29;40.68
30819;BME280;17546;42.674;23.284;2023-03-25T04:20:59;94338.88;;;16.31;40.63
30819;BME280;17546;42.674;23.284;2023-03-25T04:23:26;94339.63;;;16.32;40.57
30819;BME280;17546;42.674;23.284;2023-03-25T04:25:55;94304.22;;;16.14;40.54
30819;BME280;17546;42.674;23.284;2023-03-25T04:28:21;94339.28;;;16.36;40.49
30819;BME280;17546;42.674;23.284;2023-03-25T04:30:48;94326.53;;;16.27;40.58
30819;BME280;17546;42.674;23.284;2023-03-25T04:33:21;94336.28;;;16.33;40.46
30819;BME280;17546;42.674;23.284;2023-03-25T04:35:46;94345.91;;;16.46;40.28
30819;BME280;17546;42.674;23.284;2023-03-25T04:38:16;94317.75;;;16.44;40.15
30819;BME280;17546;42.674;23.284;2023-03-25T04:40:43;94338.25;;;16.46;40.25
30819;BME280;17546;42.674;23.284;2023-03-25T04:43:12;94325.78;;;16.26;40.47
30819;BME280;17546;42.674;23.284;2023-03-25T04:45:37;94344.63;;;16.47;40.36
30819;BME280;17546;42.674;23.284;2023-03-25T04:48:03;94348.00;;;16.53;40.18
30819;BME280;17546;42.674;23.284;2023-03-25T04:50:30;94348.63;;;16.59;40.06
30819;BME280;17546;42.674;23.284;2023-03-25T04:52:57;94346.72;;;16.54;40.24
30819;BME280;17546;42.674;23.284;2023-03-25T04:55:24;94362.31;;;16.70;40.15
30819;BME280;17546;42.674;23.284;2023-03-25T04:57:51;94335.25;;;16.44;40.20
30819;BME280;17546;42.674;23.284;2023-03-25T05:00:20;94353.94;;;16.70;40.13
30819;BME280;17546;42.674;23.284;2023-03-25T05:02:50;94348.13;;;16.68;40.14
30819;BME280;17546;42.674;23.284;2023-03-25T05:05:18;94357.88;;;16.75;40.16
30819;BME280;17546;42.674;23.284;2023-03-25T05:07:45;94357.22;;;16.61;40.46
30819;BME280;17546;42.674;23.284;2023-03-25T05:10:21;94359.00;;;16.72;40.27
30819;BME280;17546;42.674;23.284;2023-03-25T05:12:47;94350.59;;;16.72;40.22
30819;BME280;17546;42.674;23.284;2023-03-25T05:15:14;94337.16;;;16.70;40.16
30819;BME280;17546;42.674;23.284;2023-03-25T05:17:41;94355.50;;;16.79;40.33
30819;BME280;17546;42.674;23.284;2023-03-25T05:20:08;94339.22;;;16.28;40.80
30819;BME280;17546;42.674;23.284;2023-03-25T05:22:38;94359.72;;;16.72;40.57
30819;BME280;17546;42.674;23.284;2023-03-25T05:25:12;94361.41;;;16.89;40.45
30819;BME280;17546;42.674;23.284;2023-03-25T05:27:37;94366.22;;;16.88;40.36
30819;BME280;17546;42.674;23.284;2023-03-25T05:30:04;94364.31;;;17.04;40.02
30819;BME280;17546;42.674;23.284;2023-03-25T05:32:30;94347.53;;;17.04;39.84
30819;BME280;17546;42.674;23.284;2023-03-25T05:34:58;94345.31;;;17.10;39.68
30819;BME280;17546;42.674;23.284;2023-03-25T05:37:24;94349.91;;;17.29;39.65
30819;BME280;17546;42.674;23.284;2023-03-25T05:39:52;94354.06;;;17.35;39.60
30819;BME280;17546;42.674;23.284;2023-03-25T05:42:18;94345.19;;;17.24;39.24
30819;BME280;17546;42.674;23.284;2023-03-25T05:44:48;94366.59;;;17.42;39.04
30819;BME280;17546;42.674;23.284;2023-03-25T05:47:20;94353.00;;;17.46;39.11
30819;BME280;17546;42.674;23.284;2023-03-25T05:49:51;94371.34;;;17.63;39.08
30819;BME280;17546;42.674;23.284;2023-03-25T05:52:18;94342.03;;;17.64;38.73
30819;BME280;17546;42.674;23.284;2023-03-25T05:54:45;94365.13;;;17.85;38.60
30819;BME280;17546;42.674;23.284;2023-03-25T05:57:14;94367.59;;;17.96;38.26
30819;BME280;17546;42.674;23.284;2023-03-25T05:59:40;94362.00;;;17.96;38.12
30819;BME280;17546;42.674;23.284;2023-03-25T06:02:15;94357.56;;;18.09;37.86
30819;BME280;17546;42.674;23.284;2023-03-25T06:04:41;94358.50;;;18.04;37.82
30819;BME280;17546;42.674;23.284;2023-03-25T06:07:09;94362.44;;;18.16;37.67
30819;BME280;17546;42.674;23.284;2023-03-25T06:09:47;94331.91;;;17.82;37.69
30819;BME280;17546;42.674;23.284;2023-03-25T06:12:14;94332.84;;;17.92;37.32
30819;BME280;17546;42.674;23.284;2023-03-25T06:14:41;94343.16;;;18.05;36.93
30819;BME280;17546;42.674;23.284;2023-03-25T06:17:16;94340.41;;;18.20;36.74
30819;BME280;17546;42.674;23.284;2023-03-25T06:19:47;94356.31;;;18.41;36.40
30819;BME280;17546;42.674;23.284;2023-03-25T06:22:13;94321.34;;;18.26;36.37
30819;BME280;17546;42.674;23.284;2023-03-25T06:24:40;94337.84;;;18.53;36.37
30819;BME280;17546;42.674;23.284;2023-03-25T06:27:16;94358.78;;;18.75;36.09
30819;BME280;17546;42.674;23.284;2023-03-25T06:29:42;94354.84;;;18.55;36.63
30819;BME280;17546;42.674;23.284;2023-03-25T06:32:10;94354.66;;;18.76;36.59
30819;BME280;17546;42.674;23.284;2023-03-25T06:34:36;94360.13;;;18.82;36.08
30819;BME280;17546;42.674;23.284;2023-03-25T06:37:04;94342.91;;;18.70;36.54
30819;BME280;17546;42.674;23.284;2023-03-25T06:39:30;94341.97;;;18.75;36.66
30819;BME280;17546;42.674;23.284;2023-03-25T06:41:57;94362.16;;;18.73;36.71
30819;BME280;17546;42.674;23.284;2023-03-25T06:44:23;94363.28;;;18.55;37.17
30819;BME280;17546;42.674;23.284;2023-03-25T06:46:49;94352.41;;;18.51;37.38
30819;BME280;17546;42.674;23.284;2023-03-25T06:49:14;94371.88;;;18.57;37.45
30819;BME280;17546;42.674;23.284;2023-03-25T06:51:40;94349.63;;;18.59;37.14
30819;BME280;17546;42.674;23.284;2023-03-25T06:54:05;94369.84;;;18.88;36.97
30819;BME280;17546;42.674;23.284;2023-03-25T06:56:31;94347.19;;;18.63;36.76
30819;BME280;17546;42.674;23.284;2023-03-25T06:58:56;94374.91;;;18.90;36.76
30819;BME280;17546;42.674;23.284;2023-03-25T07:01:22;94359.75;;;18.77;36.73
30819;BME280;17546;42.674;23.284;2023-03-25T07:03:47;94373.72;;;18.47;37.30
30819;BME280;17546;42.674;23.284;2023-03-25T07:06:16;94376.03;;;18.87;36.61
30819;BME280;17546;42.674;23.284;2023-03-25T07:08:42;94372.91;;;18.23;37.62
30819;BME280;17546;42.674;23.284;2023-03-25T07:11:09;94363.28;;;18.70;37.14
30819;BME280;17546;42.674;23.284;2023-03-25T07:13:35;94367.94;;;18.75;36.91
30819;BME280;17546;42.674;23.284;2023-03-25T07:16:01;94370.81;;;18.98;36.71
30819;BME280;17546;42.674;23.284;2023-03-25T07:18:29;94373.00;;;19.15;36.12
30819;BME280;17546;42.674;23.284;2023-03-25T07:20:55;94348.88;;;18.66;36.91
30819;BME280;17546;42.674;23.284;2023-03-25T07:23:20;94354.28;;;18.41;37.02
30819;BME280;17546;42.674;23.284;2023-03-25T07:25:46;94363.28;;;19.09;36.22
30819;BME280;17546;42.674;23.284;2023-03-25T07:28:11;94362.91;;;19.28;36.30
30819;BME280;17546;42.674;23.284;2023-03-25T07:30:39;94367.00;;;19.27;36.22
30819;BME280;17546;42.674;23.284;2023-03-25T07:33:05;94347.59;;;18.90;36.13
30819;BME280;17546;42.674;23.284;2023-03-25T07:35:31;94325.88;;;18.75;36.59
30819;BME280;17546;42.674;23.284;2023-03-25T07:37:56;94361.78;;;19.31;36.28
30819;BME280;17546;42.674;23.284;2023-03-25T07:40:21;94367.03;;;19.19;36.35
30819;BME280;17546;42.674;23.284;2023-03-25T07:42:47;94360.81;;;19.51;35.80
30819;BME280;17546;42.674;23.284;2023-03-25T07:45:12;94332.38;;;19.32;35.79
30819;BME280;17546;42.674;23.284;2023-03-25T07:47:38;94350.94;;;18.73;36.98
30819;BME280;17546;42.674;23.284;2023-03-25T07:50:04;94336.16;;;19.19;36.17
30819;BME280;17546;42.674;23.284;2023-03-25T07:52:31;94328.97;;;19.49;35.64
30819;BME280;17546;42.674;23.284;2023-03-25T07:54:56;94334.31;;;19.77;35.18
30819;BME280;17546;42.674;23.284;2023-03-25T07:57:21;94341.66;;;19.57;36.05
30819;BME280;17546;42.674;23.284;2023-03-25T07:59:47;94323.22;;;19.24;36.18
30819;BME280;17546;42.674;23.284;2023-03-25T08:02:13;94333.97;;;19.73;35.76
30819;BME280;17546;42.674;23.284;2023-03-25T08:04:39;94321.31;;;19.97;35.26
30819;BME280;17546;42.674;23.284;2023-03-25T08:07:08;94317.81;;;20.22;34.73
30819;BME280;17546;42.674;23.284;2023-03-25T08:09:33;94308.22;;;20.25;34.66
30819;BME280;17546;42.674;23.284;2023-03-25T08:11:58;94294.59;;;20.47;34.75
30819;BME280;17546;42.674;23.284;2023-03-25T08:14:25;94318.56;;;20.48;34.45
30819;BME280;17546;42.674;23.284;2023-03-25T08:16:52;94317.88;;;19.74;35.86
30819;BME280;17546;42.674;23.284;2023-03-25T08:19:17;94316.66;;;19.92;35.68
30819;BME280;17546;42.674;23.284;2023-03-25T08:21:43;94320.00;;;19.98;35.83
30819;BME280;17546;42.674;23.284;2023-03-25T08:24:08;94295.63;;;20.59;35.30
30819;BME280;17546;42.674;23.284;2023-03-25T08:26:36;94306.25;;;20.93;34.05
30819;BME280;17546;42.674;23.284;2023-03-25T08:29:03;94312.69;;;21.46;33.70
30819;BME280;17546;42.674;23.284;2023-03-25T08:31:30;94319.97;;;21.49;35.21
30819;BME280;17546;42.674;23.284;2023-03-25T08:33:58;94310.69;;;22.36;33.97
30819;BME280;17546;42.674;23.284;2023-03-25T08:36:23;94305.88;;;21.84;34.16
30819;BME280;17546;42.674;23.284;2023-03-25T08:38:49;94307.47;;;22.22;32.26
30819;BME280;17546;42.674;23.284;2023-03-25T08:41:16;94305.06;;;22.82;32.09
30819;BME280;17546;42.674;23.284;2023-03-25T08:43:42;94273.19;;;22.25;32.27
30819;BME280;17546;42.674;23.284;2023-03-25T08:46:07;94295.72;;;22.89;32.59
30819;BME280;17546;42.674;23.284;2023-03-25T08:48:33;94285.97;;;23.00;31.72
30819;BME280;17546;42.674;23.284;2023-03-25T08:50:58;94294.75;;;23.14;30.95
30819;BME280;17546;42.674;23.284;2023-03-25T08:53:25;94290.06;;;23.46;31.13
30819;BME280;17546;42.674;23.284;2023-03-25T08:55:55;94282.28;;;23.37;30.55
30819;BME280;17546;42.674;23.284;2023-03-25T08:58:22;94286.31;;;23.24;31.54
30819;BME280;17546;42.674;23.284;2023-03-25T09:00:49;94294.78;;;23.92;30.59
30819;BME280;17546;42.674;23.284;2023-03-25T09:03:19;94280.34;;;24.07;30.79
30819;BME280;17546;42.674;23.284;2023-03-25T09:05:45;94285.75;;;24.44;30.34
30819;BME280;17546;42.674;23.284;2023-03-25T09:08:11;94285.06;;;24.34;30.59
30819;BME280;17546;42.674;23.284;2023-03-25T09:10:36;94277.78;;;24.72;29.64
30819;BME280;17546;42.674;23.284;2023-03-25T09:13:02;94278.47;;;24.82;29.75
30819;BME280;17546;42.674;23.284;2023-03-25T09:15:27;94254.78;;;24.78;29.08
30819;BME280;17546;42.674;23.284;2023-03-25T09:17:53;94268.41;;;25.22;29.18
30819;BME280;17546;42.674;23.284;2023-03-25T09:20:18;94262.22;;;25.35;29.05
30819;BME280;17546;42.674;23.284;2023-03-25T09:22:44;94264.00;;;25.74;28.07
30819;BME280;17546;42.674;23.284;2023-03-25T09:25:09;94242.69;;;26.06;27.85
30819;BME280;17546;42.674;23.284;2023-03-25T09:27:35;94264.59;;;26.51;26.86
30819;BME280;17546;42.674;23.284;2023-03-25T09:30:02;94261.00;;;26.50;27.01
30819;BME280;17546;42.674;23.284;2023-03-25T09:32:28;94251.91;;;26.64;27.06
30819;BME280;17546;42.674;23.284;2023-03-25T09:34:53;94255.84;;;26.70;25.60
30819;BME280;17546;42.674;23.284;2023-03-25T09:37:19;94246.72;;;26.60;26.14
30819;BME280;17546;42.674;23.284;2023-03-25T09:39:44;94253.38;;;26.65;26.13
30819;BME280;17546;42.674;23.284;2023-03-25T09:42:29;94230.91;;;26.69;26.11
30819;BME280;17546;42.674;23.284;2023-03-25T09:50:47;94254.34;;;27.28;25.49
30819;BME280;17546;42.674;23.284;2023-03-25T09:55:58;94226.28;;;27.23;25.33
30819;BME280;17546;42.674;23.284;2023-03-25T09:58:37;94214.88;;;26.62;24.73
30819;BME280;17546;42.674;23.284;2023-03-25T10:06:22;94234.72;;;26.73;24.77
30819;BME280;17546;42.674;23.284;2023-03-25T10:14:51;94213.34;;;26.84;24.34
30819;BME280;17546;42.674;23.284;2023-03-25T10:17:35;94224.69;;;27.08;23.63
30819;BME280;17546;42.674;23.284;2023-03-25T10:20:13;94201.72;;;26.92;23.97
30819;BME280;17546;42.674;23.284;2023-03-25T10:25:56;94184.19;;;26.95;23.85
30819;BME280;17546;42.674;23.284;2023-03-25T10:28:30;94171.63;;;26.75;23.85
30819;BME280;17546;42.674;23.284;2023-03-25T10:30:57;94191.97;;;26.95;23.27
30819;BME280;17546;42.674;23.284;2023-03-25T10:35:49;94188.06;;;27.63;23.47
30819;BME280;17546;42.674;23.284;2023-03-25T10:38:18;94181.34;;;27.70;23.12
30819;BME280;17546;42.674;23.284;2023-03-25T10:40:49;94176.22;;;27.55;23.09
30819;BME280;17546;42.674;23.284;2023-03-25T10:43:27;94178.41;;;27.94;23.16
30819;BME280;17546;42.674;23.284;2023-03-25T10:46:02;94161.38;;;28.08;23.36
30819;BME280;17546;42.674;23.284;2023-03-25T10:48:33;94173.00;;;27.86;23.54
30819;BME280;17546;42.674;23.284;2023-03-25T10:51:10;94150.03;;;27.19;24.47
30819;BME280;17546;42.674;23.284;2023-03-25T10:53:39;94162.94;;;26.96;25.29
30819;BME280;17546;42.674;23.284;2023-03-25T10:56:13;94160.91;;;27.11;24.44
30819;BME280;17546;42.674;23.284;2023-03-25T10:58:43;94159.25;;;27.31;24.73
30819;BME280;17546;42.674;23.284;2023-03-25T11:01:11;94151.31;;;27.04;24.65
30819;BME280;17546;42.674;23.284;2023-03-25T11:03:39;94144.19;;;26.68;25.34
30819;BME280;17546;42.674;23.284;2023-03-25T11:06:05;94126.00;;;26.96;24.93
30819;BME280;17546;42.674;23.284;2023-03-25T11:08:31;94140.13;;;27.20;25.50
30819;BME280;17546;42.674;23.284;2023-03-25T11:10:56;94129.75;;;27.25;25.13
30819;BME280;17546;42.674;23.284;2023-03-25T11:13:28;94124.41;;;27.31;24.67
30819;BME280;17546;42.674;23.284;2023-03-25T11:15:58;94124.19;;;27.52;24.40
30819;BME280;17546;42.674;23.284;2023-03-25T11:18:28;94119.22;;;27.78;24.49
30819;BME280;17546;42.674;23.284;2023-03-25T11:21:05;94105.06;;;27.67;24.09
30819;BME280;17546;42.674;23.284;2023-03-25T11:23:49;94117.56;;;26.98;23.73
30819;BME280;17546;42.674;23.284;2023-03-25T11:26:25;94101.72;;;27.84;23.92
30819;BME280;17546;42.674;23.284;2023-03-25T11:29:00;94118.91;;;28.12;22.95
30819;BME280;17546;42.674;23.284;2023-03-25T11:31:34;94104.94;;;27.65;22.85
30819;BME280;17546;42.674;23.284;2023-03-25T11:36:46;94090.59;;;27.88;22.42
30819;BME280;17546;42.674;23.284;2023-03-25T11:41:45;94099.78;;;27.61;23.08
30819;BME280;17546;42.674;23.284;2023-03-25T11:44:29;94101.66;;;27.56;23.20
30819;BME280;17546;42.674;23.284;2023-03-25T11:46:59;94084.50;;;27.94;22.73
30819;BME280;17546;42.674;23.284;2023-03-25T11:49:26;94060.81;;;28.03;22.31
30819;BME280;17546;42.674;23.284;2023-03-25T11:52:04;94077.69;;;28.27;21.91
30819;BME280;17546;42.674;23.284;2023-03-25T11:54:33;94060.84;;;27.12;23.16
30819;BME280;17546;42.674;23.284;2023-03-25T11:57:02;94077.72;;;27.48;22.61
30819;BME280;17546;42.674;23.284;2023-03-25T11:59:36;94072.22;;;27.00;23.01
30819;BME280;17546;42.674;23.284;2023-03-25T12:02:27;94056.00;;;27.40;22.67
30819;BME280;17546;42.674;23.284;2023-03-25T12:07:24;94063.00;;;26.39;23.57
30819;BME280;17546;42.674;23.284;2023-03-25T12:09:56;94076.38;;;27.23;22.64
30819;BME280;17546;42.674;23.284;2023-03-25T12:15:21;94064.97;;;26.48;23.68
30819;BME280;17546;42.674;23.284;2023-03-25T12:20:48;94064.28;;;27.11;23.29
30819;BME280;17546;42.674;23.284;2023-03-25T12:26:18;94056.63;;;26.76;23.43
30819;BME280;17546;42.674;23.284;2023-03-25T12:28:59;94040.91;;;26.26;23.59
30819;BME280;17546;42.674;23.284;2023-03-25T12:34:43;94051.16;;;25.84;23.89
30819;BME280;17546;42.674;23.284;2023-03-25T12:43:13;94055.75;;;26.12;24.01
30819;BME280;17546;42.674;23.284;2023-03-25T13:02:53;94046.84;;;26.42;23.42
30819;BME280;17546;42.674;23.284;2023-03-25T13:08:57;94066.75;;;26.06;23.96
30819;BME280;17546;42.674;23.284;2023-03-25T13:11:10;94058.06;;;25.81;24.11
30819;BME280;17546;42.674;23.284;2023-03-25T13:13:40;94037.88;;;25.86;23.85
30819;BME280;17546;42.674;23.284;2023-03-25T13:16:17;94065.25;;;25.93;25.03
30819;BME280;17546;42.674;23.284;2023-03-25T13:21:30;94067.84;;;25.89;24.66
30819;BME280;17546;42.674;23.284;2023-03-25T13:24:01;94059.78;;;25.86;24.52
30819;BME280;17546;42.674;23.284;2023-03-25T13:26:30;94056.81;;;25.48;25.05
30819;BME280;17546;42.674;23.284;2023-03-25T13:29:01;94064.06;;;25.40;25.53
30819;BME280;17546;42.674;23.284;2023-03-25T13:31:32;94062.13;;;25.54;25.44
30819;BME280;17546;42.674;23.284;2023-03-25T13:36:43;94058.97;;;25.26;25.30
30819;BME280;17546;42.674;23.284;2023-03-25T13:39:19;94062.09;;;25.09;25.63
30819;BME280;17546;42.674;23.284;2023-03-25T13:41:52;94066.03;;;25.04;25.96
30819;BME280;17546;42.674;23.284;2023-03-25T13:44:24;94077.03;;;23.92;27.84
30819;BME280;17546;42.674;23.284;2023-03-25T13:49:56;94103.41;;;23.34;32.07
30819;BME280;17546;42.674;23.284;2023-03-25T13:52:39;94102.94;;;23.38;30.50
30819;BME280;17546;42.674;23.284;2023-03-25T13:55:17;94120.78;;;22.53;32.51
30819;BME280;17546;42.674;23.284;2023-03-25T14:11:43;94120.22;;;23.22;33.38
30819;BME280;17546;42.674;23.284;2023-03-25T14:16:19;94125.00;;;23.80;32.81
30819;BME280;17546;42.674;23.284;2023-03-25T14:18:49;94099.69;;;23.31;34.44
30819;BME280;17546;42.674;23.284;2023-03-25T14:21:27;94102.31;;;23.49;34.30
30819;BME280;17546;42.674;23.284;2023-03-25T14:24:07;94099.66;;;23.41;34.50
30819;BME280;17546;42.674;23.284;2023-03-25T14:26:35;94099.34;;;23.47;34.24
30819;BME280;17546;42.674;23.284;2023-03-25T14:29:23;94121.91;;;23.66;35.25
30819;BME280;17546;42.674;23.284;2023-03-25T14:34:43;94108.84;;;23.51;35.78
30819;BME280;17546;42.674;23.284;2023-03-25T14:39:42;94039.75;;;22.06;39.79
30819;BME280;17546;42.674;23.284;2023-03-25T14:42:26;94017.53;;;21.54;42.76
30819;BME280;17546;42.674;23.284;2023-03-25T14:44:53;94019.38;;;21.79;42.23
30819;BME280;17546;42.674;23.284;2023-03-25T14:47:52;94029.94;;;21.88;40.32
30819;BME280;17546;42.674;23.284;2023-03-25T14:52:51;94029.88;;;22.64;39.24
30819;BME280;17546;42.674;23.284;2023-03-25T14:55:30;94021.56;;;22.76;40.35
30819;BME280;17546;42.674;23.284;2023-03-25T14:58:04;94004.91;;;22.89;40.09
30819;BME280;17546;42.674;23.284;2023-03-25T15:00:33;94013.03;;;23.15;39.07
30819;BME280;17546;42.674;23.284;2023-03-25T15:03:12;94016.69;;;23.37;39.34
30819;BME280;17546;42.674;23.284;2023-03-25T15:05:42;94014.47;;;23.35;40.30
30819;BME280;17546;42.674;23.284;2023-03-25T15:10:37;94012.47;;;23.57;38.26
30819;BME280;17546;42.674;23.284;2023-03-25T15:13:28;94014.63;;;23.68;36.97
30819;BME280;17546;42.674;23.284;2023-03-25T15:16:03;94018.03;;;23.77;37.24
30819;BME280;17546;42.674;23.284;2023-03-25T15:21:13;94012.63;;;23.90;37.38
30819;BME280;17546;42.674;23.284;2023-03-25T15:23:43;94007.38;;;23.97;37.17
30819;BME280;17546;42.674;23.284;2023-03-25T15:26:41;93998.28;;;23.98;36.42